createdAt,value
2022-10-02T00:00:01.601Z,79.70
2022-10-02T00:02:34.666Z,79.50
2022-10-02T00:05:13.647Z,79.50
2022-10-02T00:07:46.611Z,79.40
2022-10-02T00:10:24.266Z,79.30
2022-10-02T00:12:57.183Z,79.30
2022-10-02T00:15:30.964Z,79.20
2022-10-02T00:18:11.263Z,79.30
2022-10-02T00:20:59.985Z,79.30
2022-10-02T00:23:39.780Z,79.40
2022-10-02T00:26:21.965Z,79.30
2022-10-02T00:28:58.022Z,79.30
2022-10-02T00:31:48.514Z,79.30
2022-10-02T00:34:33.555Z,79.30
2022-10-02T00:37:34.428Z,79.40
2022-10-02T00:40:04.361Z,79.40
2022-10-02T00:42:49.377Z,79.50
2022-10-02T00:45:41.415Z,79.50
2022-10-02T00:48:32.372Z,79.70
2022-10-02T00:51:36.871Z,79.70
2022-10-02T00:54:16.139Z,79.60
2022-10-02T00:56:50.223Z,79.70
2022-10-02T00:59:45.529Z,79.70
2022-10-02T01:02:50.758Z,79.80
2022-10-02T01:05:18.828Z,79.70
2022-10-02T01:07:51.004Z,79.80
2022-10-02T01:10:19.152Z,79.80
2022-10-02T01:12:46.406Z,79.90
2022-10-02T01:15:27.913Z,80.00
2022-10-02T01:17:56.014Z,80.00
2022-10-02T01:20:47.359Z,79.90
2022-10-02T01:23:23.461Z,79.90
2022-10-02T01:25:51.063Z,79.90
2022-10-02T01:28:18.928Z,79.80
2022-10-02T01:30:50.901Z,80.10
2022-10-02T01:33:18.766Z,80.00
2022-10-02T01:35:46.547Z,80.00
2022-10-02T01:38:17.104Z,80.00
2022-10-02T01:40:44.826Z,80.10
2022-10-02T01:43:14.912Z,80.00
2022-10-02T01:45:54.073Z,80.00
2022-10-02T01:48:39.936Z,80.10
2022-10-02T01:51:33.476Z,80.10
2022-10-02T01:54:28.304Z,80.00
2022-10-02T01:57:27.031Z,80.00
2022-10-02T02:00:19.541Z,79.90
2022-10-02T02:03:21.304Z,80.00
2022-10-02T02:05:58.926Z,79.80
2022-10-02T02:08:40.481Z,79.80
2022-10-02T02:11:15.289Z,79.80
2022-10-02T02:13:49.253Z,79.90
2022-10-02T02:16:27.607Z,79.80
2022-10-02T02:19:02.182Z,80.00
2022-10-02T02:21:54.115Z,79.90
2022-10-02T02:24:44.726Z,80.00
2022-10-02T02:27:17.078Z,80.70
2022-10-02T02:29:49.551Z,79.90
2022-10-02T02:32:22.378Z,79.80
2022-10-02T02:34:57.992Z,80.00
2022-10-02T02:37:29.641Z,79.90
2022-10-02T02:40:05.025Z,80.00
2022-10-02T02:42:35.574Z,80.00
2022-10-02T02:45:21.687Z,80.00
2022-10-02T02:47:55.740Z,80.20
2022-10-02T02:50:31.880Z,80.20
2022-10-02T02:53:06.157Z,80.00
2022-10-02T02:55:42.783Z,80.10
2022-10-02T02:58:30.388Z,80.10
2022-10-02T03:00:57.949Z,80.10
2022-10-02T03:03:25.170Z,80.00
2022-10-02T03:06:07.901Z,80.20
2022-10-02T03:08:37.619Z,80.20
2022-10-02T03:11:16.569Z,80.30
2022-10-02T03:14:05.405Z,80.40
2022-10-02T03:17:00.272Z,80.60
2022-10-02T03:19:45.713Z,80.60
2022-10-02T03:22:18.727Z,80.50
2022-10-02T03:25:12.290Z,80.70
2022-10-02T03:27:54.981Z,80.70
2022-10-02T03:30:24.323Z,80.70
2022-10-02T03:32:53.816Z,80.90
2022-10-02T03:35:23.664Z,80.90
2022-10-02T03:37:54.428Z,81.00
2022-10-02T03:40:26.326Z,81.00
2022-10-02T03:42:58.323Z,81.10
2022-10-02T03:45:49.600Z,81.10
2022-10-02T03:48:13.841Z,81.00
2022-10-02T03:50:41.103Z,81.20
2022-10-02T03:53:16.909Z,81.10
2022-10-02T03:55:53.447Z,81.10
2022-10-02T03:58:20.778Z,81.10
2022-10-02T04:01:07.773Z,81.10
2022-10-02T04:04:03.717Z,81.10
2022-10-02T04:06:36.934Z,81.10
2022-10-02T04:09:16.532Z,81.20
2022-10-02T04:12:10.836Z,81.20
2022-10-02T04:14:55.885Z,81.30
2022-10-02T04:17:32.567Z,81.00
2022-10-02T04:20:51.121Z,81.00
2022-10-02T04:23:26.724Z,80.90
2022-10-02T04:26:24.310Z,81.10
2022-10-02T04:29:08.913Z,80.90
2022-10-02T04:31:35.998Z,81.00
2022-10-02T04:34:05.559Z,80.80
2022-10-02T04:36:45.449Z,80.90
2022-10-02T04:39:39.587Z,80.80
2022-10-02T04:42:51.974Z,80.80
2022-10-02T04:45:45.420Z,80.80
2022-10-02T04:48:45.023Z,80.90
2022-10-02T04:51:47.802Z,80.80
2022-10-02T04:54:52.468Z,81.20
2022-10-02T04:57:56.687Z,81.20
2022-10-02T05:00:25.758Z,81.20
2022-10-02T05:03:20.468Z,81.10
2022-10-02T05:06:06.276Z,81.20
2022-10-02T05:08:51.861Z,81.30
2022-10-02T05:11:49.630Z,81.20
2022-10-02T05:14:28.374Z,81.30
2022-10-02T05:17:03.876Z,81.50
2022-10-02T05:19:59.357Z,81.30
2022-10-02T05:22:35.102Z,81.10
2022-10-02T05:25:39.344Z,81.20
2022-10-02T05:28:43.560Z,81.00
2022-10-02T05:31:47.219Z,81.20
2022-10-02T05:34:54.895Z,81.20
2022-10-02T05:37:27.605Z,81.10
2022-10-02T05:40:03.567Z,81.00
2022-10-02T05:42:55.497Z,81.10
2022-10-02T05:45:37.234Z,81.10
2022-10-02T05:48:20.850Z,81.30
2022-10-02T05:50:53.147Z,81.10
2022-10-02T05:53:26.069Z,81.00
2022-10-02T05:56:00.475Z,81.20
2022-10-02T05:58:40.163Z,81.10
2022-10-02T06:01:26.087Z,81.10
2022-10-02T06:04:14.429Z,81.10
2022-10-02T06:06:54.281Z,81.10
2022-10-02T06:09:36.980Z,81.20
2022-10-02T06:12:09.676Z,81.00
2022-10-02T06:14:52.540Z,81.10
2022-10-02T06:17:26.076Z,81.10
2022-10-02T06:20:14.877Z,81.10
2022-10-02T06:22:47.819Z,81.10
2022-10-02T06:25:21.830Z,81.20
2022-10-02T06:28:12.484Z,81.10
2022-10-02T06:30:44.088Z,81.30
2022-10-02T06:33:26.389Z,81.30
2022-10-02T06:36:14.766Z,81.20
2022-10-02T06:38:54.926Z,81.50
2022-10-02T06:41:41.035Z,81.80
2022-10-02T06:44:27.610Z,81.90
2022-10-02T06:47:22.452Z,81.90
2022-10-02T06:50:01.951Z,81.80
2022-10-02T06:52:37.157Z,81.70
2022-10-02T06:55:40.892Z,81.90
2022-10-02T06:58:33.084Z,81.90
2022-10-02T07:01:37.879Z,82.10
2022-10-02T07:04:20.877Z,82.00
2022-10-02T07:06:53.795Z,82.30
2022-10-02T07:09:40.630Z,83.30
2022-10-02T07:12:13.798Z,83.00
2022-10-02T07:14:59.875Z,82.80
2022-10-02T07:17:30.159Z,82.90
2022-10-02T07:20:18.834Z,83.00
2022-10-02T07:23:10.011Z,82.90
2022-10-02T07:25:56.271Z,83.30
2022-10-02T07:28:35.335Z,83.60
2022-10-02T07:31:26.076Z,83.20
2022-10-02T07:34:14.638Z,83.30
2022-10-02T07:37:20.105Z,82.60
2022-10-02T07:39:55.993Z,82.80
2022-10-02T07:42:34.116Z,82.70
2022-10-02T07:45:06.837Z,83.00
2022-10-02T07:48:30.339Z,83.00
2022-10-02T07:51:37.981Z,82.80
2022-10-02T07:54:16.763Z,82.90
2022-10-02T07:56:47.538Z,83.00
2022-10-02T07:59:17.569Z,82.80
2022-10-02T08:01:46.863Z,83.10
2022-10-02T08:04:36.668Z,83.00
2022-10-02T08:07:09.605Z,83.10
2022-10-02T08:09:45.844Z,83.20
2022-10-02T08:12:41.511Z,83.00
2022-10-02T08:15:15.932Z,83.30
2022-10-02T08:17:50.461Z,83.30
2022-10-02T08:20:34.661Z,85.30
2022-10-02T08:23:25.054Z,87.70
2022-10-02T08:26:12.725Z,87.20
2022-10-02T08:28:56.958Z,85.70
2022-10-02T08:31:25.879Z,86.70
2022-10-02T08:33:53.158Z,85.70
2022-10-02T08:36:35.092Z,85.60
2022-10-02T08:39:34.147Z,86.10
2022-10-02T08:42:26.142Z,85.30
2022-10-02T08:45:04.956Z,85.50
2022-10-02T08:47:51.025Z,85.60
2022-10-02T08:50:56.297Z,85.60
2022-10-02T08:53:48.393Z,85.80
2022-10-02T08:56:43.284Z,85.70
2022-10-02T08:59:56.865Z,86.60
2022-10-02T09:02:58.049Z,87.20
2022-10-02T09:05:28.242Z,87.20
2022-10-02T09:08:10.292Z,86.70
2022-10-02T09:11:37.294Z,86.70
2022-10-02T09:14:25.885Z,86.70
2022-10-02T09:17:16.925Z,86.40
2022-10-02T09:20:05.594Z,86.80
2022-10-02T09:23:00.888Z,86.60
2022-10-02T09:25:54.012Z,87.00
2022-10-02T09:28:53.474Z,87.10
2022-10-02T09:31:42.266Z,87.30
2022-10-02T09:34:28.840Z,87.10
2022-10-02T09:37:33.139Z,87.00
2022-10-02T09:40:19.620Z,87.00
2022-10-02T09:43:18.776Z,86.80
2022-10-02T09:46:13.670Z,86.80
2022-10-02T09:48:52.823Z,87.30
2022-10-02T09:51:22.926Z,87.20
2022-10-02T09:54:09.124Z,87.10
2022-10-02T09:56:57.111Z,87.40
2022-10-02T09:59:33.843Z,87.30
2022-10-02T10:02:10.793Z,87.10
2022-10-02T10:05:09.014Z,87.30
2022-10-02T10:08:00.349Z,87.60
2022-10-02T10:10:45.386Z,87.40
2022-10-02T10:13:34.159Z,90.00
2022-10-02T10:16:19.227Z,90.00
2022-10-02T10:19:24.131Z,89.30
2022-10-02T10:22:15.736Z,88.10
2022-10-02T10:24:54.731Z,87.80
2022-10-02T10:27:43.377Z,87.30
2022-10-02T10:30:31.224Z,87.50
2022-10-02T10:33:24.588Z,87.80
2022-10-02T10:37:00.492Z,87.80
2022-10-02T10:39:42.325Z,87.70
2022-10-02T10:42:27.286Z,87.70
2022-10-02T10:45:35.185Z,87.90
2022-10-02T10:48:31.890Z,88.00
2022-10-02T10:51:17.318Z,87.60
2022-10-02T10:54:14.520Z,87.80
2022-10-02T10:56:46.127Z,87.80
2022-10-02T10:59:50.812Z,87.50
2022-10-02T11:02:55.283Z,87.30
2022-10-02T11:05:36.082Z,87.30
2022-10-02T11:08:24.964Z,87.20
2022-10-02T11:11:18.268Z,87.40
2022-10-02T11:14:24.191Z,87.50
2022-10-02T11:17:10.769Z,87.20
2022-10-02T11:19:56.721Z,87.40
2022-10-02T11:22:42.696Z,87.30
2022-10-02T11:25:19.782Z,87.30
2022-10-02T11:28:06.261Z,87.40
2022-10-02T11:30:55.100Z,87.40
2022-10-02T11:33:44.398Z,87.10
2022-10-02T11:36:26.591Z,87.00
2022-10-02T11:39:15.283Z,88.20
2022-10-02T11:41:46.882Z,88.60
2022-10-02T11:44:42.722Z,87.20
2022-10-02T11:47:31.483Z,86.70
2022-10-02T11:50:17.365Z,87.00
2022-10-02T11:53:31.874Z,86.60
2022-10-02T11:56:24.731Z,86.40
2022-10-02T11:59:11.821Z,85.90
2022-10-02T12:02:05.595Z,85.10
2022-10-02T12:05:06.103Z,84.90
2022-10-02T12:07:44.420Z,85.50
2022-10-02T12:10:17.489Z,85.10
2022-10-02T12:13:06.287Z,84.50
2022-10-02T12:15:48.105Z,84.10
2022-10-02T12:18:21.961Z,83.70
2022-10-02T12:21:10.885Z,83.10
2022-10-02T12:24:22.655Z,82.70
2022-10-02T12:27:12.237Z,82.90
2022-10-02T12:29:54.348Z,83.90
2022-10-02T12:32:43.280Z,83.30
2022-10-02T12:35:29.797Z,81.60
2022-10-02T12:38:07.162Z,81.60
2022-10-02T12:41:01.136Z,82.50
2022-10-02T12:43:59.025Z,81.50
2022-10-02T12:46:36.495Z,81.20
2022-10-02T12:49:38.587Z,81.50
2022-10-02T12:52:08.719Z,81.00
2022-10-02T12:55:00.535Z,80.90
2022-10-02T12:57:56.057Z,81.00
2022-10-02T13:00:43.341Z,79.70
2022-10-02T13:03:33.426Z,79.90
2022-10-02T13:06:03.727Z,80.50
2022-10-02T13:08:35.434Z,80.30
2022-10-02T13:11:36.449Z,79.80
2022-10-02T13:14:35.093Z,79.60
2022-10-02T13:17:28.852Z,79.00
2022-10-02T13:20:11.216Z,79.10
2022-10-02T13:22:54.574Z,79.30
2022-10-02T13:25:58.904Z,79.20
2022-10-02T13:28:43.221Z,80.10
2022-10-02T13:31:46.348Z,80.20
2022-10-02T13:34:22.483Z,80.20
2022-10-02T13:37:11.469Z,80.20
2022-10-02T13:39:56.888Z,80.00
2022-10-02T13:42:51.095Z,79.80
2022-10-02T13:45:57.429Z,79.80
2022-10-02T13:48:55.319Z,80.60
2022-10-02T13:51:39.251Z,79.90
2022-10-02T13:54:43.832Z,80.90
2022-10-02T13:57:31.325Z,80.90
2022-10-02T14:00:37.805Z,81.20
2022-10-02T14:03:28.353Z,81.50
2022-10-02T14:06:22.073Z,81.30
2022-10-02T14:09:13.788Z,81.10
2022-10-02T14:11:59.469Z,79.50
2022-10-02T14:14:32.572Z,79.80
2022-10-02T14:17:19.918Z,79.80
2022-10-02T14:20:12.606Z,79.50
2022-10-02T14:23:07.688Z,79.50
2022-10-02T14:25:55.102Z,79.50
2022-10-02T14:28:44.885Z,78.60
2022-10-02T14:31:21.107Z,78.30
2022-10-02T14:33:54.453Z,77.60
2022-10-02T14:36:46.229Z,76.90
2022-10-02T14:39:33.509Z,76.10
2022-10-02T14:42:18.619Z,76.60
2022-10-02T14:44:57.440Z,76.80
2022-10-02T14:48:03.845Z,77.20
2022-10-02T14:50:41.627Z,76.20
2022-10-02T14:53:27.575Z,76.70
2022-10-02T14:56:33.643Z,76.60
2022-10-02T14:59:34.650Z,76.10
2022-10-02T15:02:08.930Z,76.50
2022-10-02T15:04:55.725Z,75.90
2022-10-02T15:07:28.387Z,76.00
2022-10-02T15:10:00.514Z,76.10
2022-10-02T15:13:01.627Z,76.30
2022-10-02T15:15:44.588Z,76.80
2022-10-02T15:18:24.320Z,76.50
2022-10-02T15:20:59.669Z,76.50
2022-10-02T15:23:41.610Z,77.20
2022-10-02T15:26:49.452Z,77.30
2022-10-02T15:29:36.860Z,77.50
2022-10-02T15:32:28.610Z,77.20
2022-10-02T15:35:15.410Z,77.70
2022-10-02T15:38:02.705Z,77.80
2022-10-02T15:40:43.856Z,77.30
2022-10-02T15:43:16.915Z,77.30
2022-10-02T15:45:57.596Z,77.60
2022-10-02T15:49:03.188Z,77.80
2022-10-02T15:51:36.303Z,78.40
2022-10-02T15:54:26.456Z,77.80
2022-10-02T15:57:49.031Z,77.80
2022-10-02T16:00:18.466Z,77.80
2022-10-02T16:02:54.530Z,77.80
2022-10-02T16:05:33.505Z,78.00
2022-10-02T16:08:17.434Z,77.90
2022-10-02T16:11:28.681Z,77.90
2022-10-02T16:14:07.995Z,78.00
2022-10-02T16:16:40.534Z,77.90
2022-10-02T16:19:35.979Z,78.10
2022-10-02T16:22:24.162Z,78.00
2022-10-02T16:25:17.508Z,78.00
2022-10-02T16:27:51.741Z,78.70
2022-10-02T16:30:22.170Z,78.10
2022-10-02T16:33:18.776Z,78.00
2022-10-02T16:36:30.162Z,77.80
2022-10-02T16:39:18.896Z,78.20
2022-10-02T16:42:02.007Z,78.30
2022-10-02T16:44:43.977Z,78.30
2022-10-02T16:47:26.658Z,78.30
2022-10-02T16:50:14.373Z,78.20
2022-10-02T16:53:07.663Z,78.20
2022-10-02T16:55:47.399Z,78.00
2022-10-02T16:58:44.839Z,78.20
2022-10-02T17:01:35.485Z,78.10
2022-10-02T17:04:28.938Z,78.10
2022-10-02T17:07:20.789Z,78.20
2022-10-02T17:10:21.537Z,78.10
2022-10-02T17:13:01.475Z,78.30
2022-10-02T17:15:51.353Z,78.40
2022-10-02T17:18:18.471Z,78.20
2022-10-02T17:20:53.713Z,78.90
2022-10-02T17:23:52.545Z,78.30
2022-10-02T17:26:40.816Z,78.20
2022-10-02T17:29:15.499Z,78.10
2022-10-02T17:31:58.802Z,78.40
2022-10-02T17:34:27.872Z,78.50
2022-10-02T17:37:09.987Z,78.40
2022-10-02T17:39:58.659Z,78.40
2022-10-02T17:42:41.434Z,78.50
2022-10-02T17:45:30.304Z,78.40
2022-10-02T17:48:19.860Z,78.40
2022-10-02T17:51:19.458Z,78.50
2022-10-02T17:54:42.423Z,78.50
2022-10-02T17:57:32.030Z,78.40
2022-10-02T18:00:03.488Z,78.50
2022-10-02T18:03:01.838Z,78.40
2022-10-02T18:06:06.729Z,78.20
2022-10-02T18:08:49.411Z,78.00
2022-10-02T18:11:50.382Z,78.30
2022-10-02T18:14:32.911Z,78.30
2022-10-02T18:17:15.267Z,78.10
2022-10-02T18:19:42.379Z,78.30
2022-10-02T18:22:15.719Z,78.10
2022-10-02T18:24:45.519Z,78.20
2022-10-02T18:27:58.000Z,78.30
2022-10-02T18:30:49.244Z,78.20
2022-10-02T18:33:45.784Z,78.30
2022-10-02T18:36:31.952Z,78.40
2022-10-02T18:39:12.324Z,78.30
2022-10-02T18:41:57.958Z,78.40
2022-10-02T18:44:25.252Z,78.50
2022-10-02T18:47:02.762Z,78.40
2022-10-02T18:49:53.010Z,78.40
2022-10-02T18:52:41.830Z,78.40
2022-10-02T18:55:47.508Z,78.30
2022-10-02T18:58:37.141Z,78.40
2022-10-02T19:01:22.581Z,78.30
2022-10-02T19:04:07.735Z,78.00
2022-10-02T19:06:52.375Z,78.40
2022-10-02T19:09:26.039Z,78.40
2022-10-02T19:12:01.358Z,78.60
2022-10-02T19:14:36.385Z,78.30
2022-10-02T19:17:12.374Z,78.50
2022-10-02T19:19:41.425Z,78.40
2022-10-02T19:22:22.304Z,78.30
2022-10-02T19:25:11.835Z,78.20
2022-10-02T19:27:41.309Z,78.40
2022-10-02T19:30:22.526Z,78.50
2022-10-02T19:32:52.029Z,78.50
2022-10-02T19:35:25.745Z,79.30
2022-10-02T19:37:58.623Z,78.40
2022-10-02T19:40:32.121Z,78.40
2022-10-02T19:43:26.656Z,78.60
2022-10-02T19:45:58.791Z,78.50
2022-10-02T19:48:28.030Z,78.50
2022-10-02T19:51:01.330Z,78.30
2022-10-02T19:53:34.589Z,78.30
2022-10-02T19:56:04.817Z,78.50
2022-10-02T19:58:43.714Z,78.70
2022-10-02T20:01:24.361Z,78.50
2022-10-02T20:04:02.854Z,78.40
2022-10-02T20:06:34.806Z,78.50
2022-10-02T20:09:14.976Z,78.50
2022-10-02T20:11:58.852Z,78.60
2022-10-02T20:14:39.855Z,78.50
2022-10-02T20:17:09.171Z,78.50
2022-10-02T20:19:43.057Z,78.70
2022-10-02T20:22:24.193Z,78.50
2022-10-02T20:25:03.760Z,78.70
2022-10-02T20:27:53.093Z,78.70
2022-10-02T20:30:22.638Z,78.50
2022-10-02T20:32:52.791Z,78.60
2022-10-02T20:35:35.498Z,78.30
2022-10-02T20:38:13.439Z,78.60
2022-10-02T20:40:46.449Z,78.60
2022-10-02T20:43:22.075Z,78.70
2022-10-02T20:46:11.949Z,78.60
2022-10-02T20:49:07.394Z,78.50
2022-10-02T20:51:48.209Z,78.50
2022-10-02T20:54:29.076Z,78.60
2022-10-02T20:57:14.696Z,78.50
2022-10-02T20:59:54.361Z,78.30
2022-10-02T21:02:27.503Z,78.60
2022-10-02T21:05:14.095Z,78.50
2022-10-02T21:08:01.530Z,79.00
2022-10-02T21:10:47.982Z,78.50
2022-10-02T21:13:28.823Z,78.60
2022-10-02T21:16:25.575Z,78.70
2022-10-02T21:19:04.970Z,78.60
2022-10-02T21:21:53.728Z,78.50
2022-10-02T21:24:40.113Z,78.60
2022-10-02T21:27:27.105Z,78.40
2022-10-02T21:30:10.204Z,78.70
2022-10-02T21:32:46.300Z,78.60
2022-10-02T21:35:16.889Z,78.70
2022-10-02T21:38:11.268Z,78.70
2022-10-02T21:41:09.420Z,78.50
2022-10-02T21:44:07.051Z,78.60
2022-10-02T21:46:51.910Z,78.70
2022-10-02T21:49:41.961Z,78.80
2022-10-02T21:52:38.010Z,78.70
2022-10-02T21:55:07.844Z,78.70
2022-10-02T21:57:53.069Z,78.60
2022-10-02T22:00:27.902Z,78.70
2022-10-02T22:03:13.662Z,78.70
2022-10-02T22:06:01.820Z,78.80
2022-10-02T22:08:51.659Z,78.80
2022-10-02T22:11:40.108Z,78.80
2022-10-02T22:14:13.624Z,78.90
2022-10-02T22:16:49.625Z,78.70
2022-10-02T22:19:36.328Z,78.70
2022-10-02T22:22:12.937Z,78.90
2022-10-02T22:24:57.158Z,78.90
2022-10-02T22:27:36.915Z,79.00
2022-10-02T22:30:04.312Z,78.90
2022-10-02T22:33:12.269Z,79.00
2022-10-02T22:36:00.994Z,78.80
2022-10-02T22:38:39.923Z,78.90
2022-10-02T22:41:16.214Z,78.90
2022-10-02T22:44:07.768Z,78.70
2022-10-02T22:46:56.947Z,79.10
2022-10-02T22:49:35.860Z,78.90
2022-10-02T22:52:22.408Z,79.00
2022-10-02T22:55:02.111Z,79.00
2022-10-02T22:58:23.403Z,79.00
2022-10-02T23:01:00.231Z,79.10
2022-10-02T23:03:33.250Z,79.00
2022-10-02T23:06:16.291Z,78.90
2022-10-02T23:08:46.798Z,78.80
2022-10-02T23:11:44.242Z,78.90
2022-10-02T23:14:26.695Z,79.00
2022-10-02T23:17:22.665Z,78.90
2022-10-02T23:19:52.620Z,78.80
2022-10-02T23:22:34.799Z,79.00
2022-10-02T23:25:32.643Z,79.00
2022-10-02T23:28:11.807Z,78.90
2022-10-02T23:30:51.277Z,78.80
2022-10-02T23:33:26.145Z,78.80
2022-10-02T23:36:16.197Z,78.90
2022-10-02T23:39:11.216Z,78.80
2022-10-02T23:41:47.275Z,78.90
2022-10-02T23:44:26.298Z,78.80
2022-10-02T23:47:01.751Z,78.90
2022-10-02T23:49:39.431Z,78.80
2022-10-02T23:52:18.188Z,78.90
2022-10-02T23:55:11.496Z,78.90
2022-10-02T23:57:44.454Z,78.80
